createdAt,value
2018-04-16T00:01:28.228Z,17.63
2018-04-16T00:03:55.824Z,17.57
2018-04-16T00:06:23.329Z,17.58
2018-04-16T00:08:50.888Z,17.54
2018-04-16T00:11:18.510Z,17.50
2018-04-16T00:13:46.007Z,17.51
2018-04-16T00:16:13.567Z,17.53
2018-04-16T00:18:41.150Z,17.56
2018-04-16T00:21:08.689Z,17.58
2018-04-16T00:23:36.242Z,17.57
2018-04-16T00:26:03.787Z,17.54
2018-04-16T00:28:31.324Z,17.52
2018-04-16T00:30:58.998Z,17.55
2018-04-16T00:33:32.794Z,17.57
2018-04-16T00:36:05.936Z,17.52
2018-04-16T00:38:39.000Z,17.51
2018-04-16T00:41:11.997Z,17.52
2018-04-16T00:43:44.974Z,17.55
2018-04-16T00:46:18.046Z,17.51
2018-04-16T00:48:51.109Z,17.62
2018-04-16T00:51:24.149Z,17.64
2018-04-16T00:54:08.875Z,17.64
2018-04-16T00:56:41.839Z,17.58
2018-04-16T00:59:14.975Z,17.49
2018-04-16T01:01:48.020Z,17.41
2018-04-16T01:04:20.983Z,17.37
2018-04-16T01:06:54.015Z,17.30
2018-04-16T01:09:27.084Z,17.25
2018-04-16T01:12:00.110Z,17.22
2018-04-16T01:14:33.455Z,17.15
2018-04-16T01:17:07.507Z,17.12
2018-04-16T01:19:40.475Z,17.13
2018-04-16T01:22:13.503Z,17.12
2018-04-16T01:24:46.523Z,17.14
2018-04-16T01:27:19.499Z,17.12
2018-04-16T01:29:52.416Z,17.08
2018-04-16T01:32:26.294Z,17.04
2018-04-16T01:34:59.420Z,17.05
2018-04-16T01:37:32.805Z,17.08
2018-04-16T01:40:05.757Z,17.06
2018-04-16T01:42:38.716Z,17.05
2018-04-16T01:45:11.796Z,17.07
2018-04-16T01:47:44.690Z,17.09
2018-04-16T01:50:17.680Z,17.12
2018-04-16T01:52:50.713Z,17.14
2018-04-16T01:55:23.756Z,17.14
2018-04-16T01:57:56.810Z,17.14
2018-04-16T02:00:29.778Z,17.10
2018-04-16T02:03:02.940Z,17.07
2018-04-16T02:05:35.929Z,17.03
2018-04-16T02:08:08.867Z,17.00
2018-04-16T02:10:41.814Z,17.03
2018-04-16T02:13:14.813Z,17.01
2018-04-16T02:18:53.958Z,17.02
2018-04-16T02:21:27.025Z,17.05
2018-04-16T02:24:00.027Z,17.08
2018-04-16T02:26:33.083Z,17.09
2018-04-16T02:29:06.071Z,17.09
2018-04-16T02:31:39.208Z,17.05
2018-04-16T02:37:20.565Z,16.95
2018-04-16T02:39:53.694Z,16.91
2018-04-16T02:42:26.739Z,16.87
2018-04-16T02:44:59.730Z,16.83
2018-04-16T02:47:32.703Z,16.84
2018-04-16T02:50:05.640Z,16.84
2018-04-16T02:52:38.763Z,16.80
2018-04-16T02:55:11.785Z,16.79
2018-04-16T02:57:44.797Z,16.74
2018-04-16T03:00:17.783Z,16.70
2018-04-16T03:02:50.927Z,16.68
2018-04-16T03:05:24.002Z,16.65
2018-04-16T03:07:57.055Z,16.59
2018-04-16T03:10:30.016Z,16.64
2018-04-16T03:13:03.034Z,16.58
2018-04-16T03:15:36.123Z,16.54
2018-04-16T03:18:09.186Z,16.54
2018-04-16T03:20:42.511Z,16.53
2018-04-16T03:23:15.467Z,16.50
2018-04-16T03:25:49.271Z,16.49
2018-04-16T03:28:22.232Z,16.51
2018-04-16T03:30:55.179Z,16.49
2018-04-16T03:33:28.124Z,16.45
2018-04-16T03:36:01.154Z,16.50
2018-04-16T03:38:34.490Z,16.51
2018-04-16T03:41:07.499Z,16.48
2018-04-16T03:43:40.465Z,16.45
2018-04-16T03:46:13.443Z,16.43
2018-04-16T03:48:46.399Z,16.40
2018-04-16T03:51:14.774Z,16.35
2018-04-16T03:53:52.946Z,16.38
2018-04-16T03:56:20.427Z,16.35
2018-04-16T03:58:48.008Z,16.34
2018-04-16T04:01:15.616Z,16.33
2018-04-16T04:03:43.057Z,16.32
2018-04-16T04:06:10.700Z,16.30
2018-04-16T04:08:38.176Z,16.29
2018-04-16T04:11:05.644Z,16.30
2018-04-16T04:13:33.188Z,16.29
2018-04-16T04:16:00.706Z,16.25
2018-04-16T04:18:28.248Z,16.23
2018-04-16T04:20:55.744Z,16.23
2018-04-16T04:26:35.594Z,16.26
2018-04-16T04:29:14.760Z,16.24
2018-04-16T04:31:42.234Z,16.24
2018-04-16T04:34:09.740Z,16.28
2018-04-16T04:36:37.250Z,16.25
2018-04-16T04:39:04.770Z,16.25
2018-04-16T04:41:32.253Z,16.33
2018-04-16T04:43:59.740Z,16.31
2018-04-16T04:46:27.212Z,16.30
2018-04-16T04:48:54.807Z,16.34
2018-04-16T04:51:22.286Z,16.34
2018-04-16T04:53:49.764Z,16.34
2018-04-16T04:56:17.243Z,16.34
2018-04-16T04:58:44.701Z,16.35
2018-04-16T05:01:12.194Z,16.38
2018-04-16T05:03:39.716Z,16.43
2018-04-16T05:06:07.206Z,16.47
2018-04-16T05:08:34.743Z,16.62
2018-04-16T05:11:02.275Z,16.57
2018-04-16T05:13:29.867Z,16.58
2018-04-16T05:15:57.339Z,16.56
2018-04-16T05:18:24.827Z,16.52
2018-04-16T05:20:52.355Z,16.46
2018-04-16T05:23:19.839Z,16.45
2018-04-16T05:25:47.362Z,16.45
2018-04-16T05:28:14.850Z,16.43
2018-04-16T05:30:42.375Z,16.44
2018-04-16T05:33:09.891Z,16.44
2018-04-16T05:35:37.390Z,16.45
2018-04-16T05:38:04.946Z,16.46
2018-04-16T05:40:32.472Z,16.48
2018-04-16T05:42:59.958Z,16.52
2018-04-16T05:45:27.450Z,16.56
2018-04-16T05:47:54.953Z,16.60
2018-04-16T05:50:22.486Z,16.63
2018-04-16T05:52:50.028Z,16.69
2018-04-16T05:55:17.483Z,16.80
2018-04-16T05:57:44.974Z,16.96
2018-04-16T06:00:12.461Z,17.06
2018-04-16T06:02:39.943Z,17.17
2018-04-16T06:05:07.430Z,17.31
2018-04-16T06:07:34.958Z,17.42
2018-04-16T06:10:02.441Z,17.50
2018-04-16T06:12:29.979Z,17.65
2018-04-16T06:14:57.458Z,17.75
2018-04-16T06:17:24.921Z,17.91
2018-04-16T06:19:52.492Z,18.06
2018-04-16T06:22:20.052Z,18.17
2018-04-16T06:24:47.563Z,18.30
2018-04-16T06:27:15.067Z,18.43
2018-04-16T06:29:42.581Z,18.65
2018-04-16T06:32:10.119Z,18.79
2018-04-16T06:34:37.628Z,18.98
2018-04-16T06:37:05.123Z,19.07
2018-04-16T06:39:32.621Z,19.43
2018-04-16T06:42:00.168Z,19.56
2018-04-16T06:44:27.885Z,19.69
2018-04-16T06:46:55.811Z,19.78
2018-04-16T06:49:23.283Z,19.85
2018-04-16T06:51:50.812Z,19.97
2018-04-16T06:54:18.455Z,20.20
2018-04-16T06:56:46.020Z,20.23
2018-04-16T06:59:13.524Z,20.24
2018-04-16T07:01:41.031Z,20.20
2018-04-16T07:04:08.568Z,20.17
2018-04-16T07:06:36.070Z,20.14
2018-04-16T07:09:03.572Z,20.24
2018-04-16T07:11:31.099Z,20.30
2018-04-16T07:13:59.284Z,20.37
2018-04-16T07:16:26.812Z,20.41
2018-04-16T07:18:54.317Z,20.39
2018-04-16T07:21:21.832Z,20.47
2018-04-16T07:23:49.483Z,20.52
2018-04-16T07:26:18.552Z,20.40
2018-04-16T07:28:46.067Z,20.43
2018-04-16T07:31:13.555Z,20.52
2018-04-16T07:36:13.329Z,20.89
2018-04-16T07:38:43.074Z,21.03
2018-04-16T07:41:10.654Z,21.26
2018-04-16T07:43:38.269Z,21.45
2018-04-16T07:46:05.775Z,21.55
2018-04-16T07:48:33.258Z,21.72
2018-04-16T07:51:00.777Z,21.80
2018-04-16T07:53:28.342Z,21.77
2018-04-16T07:55:55.855Z,21.78
2018-04-16T07:58:23.430Z,21.63
2018-04-16T08:00:50.921Z,21.53
2018-04-16T08:03:18.402Z,21.47
2018-04-16T08:05:45.879Z,21.41
2018-04-16T08:08:13.394Z,21.40
2018-04-16T08:10:41.015Z,21.37
2018-04-16T08:13:08.547Z,21.42
2018-04-16T08:15:36.161Z,21.31
2018-04-16T08:18:03.662Z,21.27
2018-04-16T08:20:31.180Z,21.19
2018-04-16T08:22:58.729Z,21.10
2018-04-16T08:25:26.226Z,21.07
2018-04-16T08:27:53.743Z,21.03
2018-04-16T08:30:21.251Z,21.05
2018-04-16T08:32:48.914Z,21.03
2018-04-16T08:35:16.408Z,21.03
2018-04-16T08:37:43.988Z,21.09
2018-04-16T08:42:45.368Z,21.17
2018-04-16T08:45:12.863Z,21.27
2018-04-16T08:47:40.343Z,21.24
2018-04-16T08:50:07.870Z,21.17
2018-04-16T08:52:35.369Z,21.22
2018-04-16T08:55:03.178Z,21.30
2018-04-16T08:57:30.961Z,21.39
2018-04-16T08:59:59.475Z,21.47
2018-04-16T09:02:27.007Z,21.56
2018-04-16T09:04:54.494Z,21.46
2018-04-16T09:07:22.017Z,21.39
2018-04-16T09:09:49.482Z,21.46
2018-04-16T09:12:16.972Z,21.45
2018-04-16T09:14:44.554Z,21.64
2018-04-16T09:17:12.105Z,21.77
2018-04-16T09:19:40.762Z,21.94
2018-04-16T09:22:15.352Z,22.07
2018-04-16T09:24:42.908Z,21.89
2018-04-16T09:27:10.416Z,21.73
2018-04-16T09:29:37.987Z,22.00
2018-04-16T09:32:05.562Z,22.02
2018-04-16T09:34:33.095Z,22.17
2018-04-16T09:37:00.655Z,22.47
2018-04-16T09:39:28.193Z,22.84
2018-04-16T09:41:55.688Z,22.71
2018-04-16T09:44:23.280Z,23.01
2018-04-16T09:46:50.810Z,23.24
2018-04-16T09:49:18.355Z,23.18
2018-04-16T09:51:45.855Z,22.96
2018-04-16T09:54:13.444Z,23.05
2018-04-16T09:56:41.240Z,22.98
2018-04-16T09:59:08.738Z,22.85
2018-04-16T10:01:38.404Z,22.61
2018-04-16T10:04:06.320Z,22.38
2018-04-16T10:06:33.915Z,22.16
2018-04-16T10:09:01.486Z,21.12
2018-04-16T10:11:29.006Z,21.08
2018-04-16T10:13:56.495Z,20.94
2018-04-16T10:16:23.998Z,21.04
2018-04-16T10:18:51.664Z,21.06
2018-04-16T10:21:19.185Z,21.03
2018-04-16T10:23:46.804Z,21.37
2018-04-16T10:26:14.324Z,21.54
2018-04-16T10:28:42.057Z,21.69
2018-04-16T10:31:09.514Z,21.97
2018-04-16T10:33:37.044Z,22.01
2018-04-16T10:36:04.571Z,21.79
2018-04-16T10:38:32.083Z,21.98
2018-04-16T10:40:59.620Z,22.14
2018-04-16T10:43:27.419Z,22.49
2018-04-16T10:45:54.943Z,22.20
2018-04-16T10:48:22.437Z,22.43
2018-04-16T10:50:49.936Z,22.70
2018-04-16T10:53:17.423Z,22.86
2018-04-16T10:55:49.671Z,22.58
2018-04-16T10:58:17.217Z,22.41
2018-04-16T11:00:44.707Z,22.33
2018-04-16T11:03:12.204Z,22.14
2018-04-16T11:05:39.976Z,22.28
2018-04-16T11:08:07.477Z,22.19
2018-04-16T11:10:34.983Z,21.93
2018-04-16T11:13:02.617Z,22.00
2018-04-16T11:15:30.067Z,22.14
2018-04-16T11:17:57.605Z,22.58
2018-04-16T11:20:25.136Z,22.75
2018-04-16T11:22:52.700Z,22.41
2018-04-16T11:25:20.176Z,22.21
2018-04-16T11:27:51.509Z,22.36
2018-04-16T11:30:21.597Z,21.96
2018-04-16T11:32:49.095Z,21.75
2018-04-16T11:35:16.561Z,21.61
2018-04-16T11:37:44.225Z,21.47
2018-04-16T11:40:11.792Z,21.41
2018-04-16T11:42:39.335Z,21.61
2018-04-16T11:45:13.635Z,22.00
2018-04-16T11:47:42.389Z,22.08
2018-04-16T11:50:09.879Z,21.85
2018-04-16T11:52:37.389Z,21.63
2018-04-16T11:55:04.873Z,21.54
2018-04-16T12:00:04.539Z,21.59
2018-04-16T12:02:32.017Z,21.36
2018-04-16T12:04:59.528Z,20.92
2018-04-16T12:07:29.579Z,21.01
2018-04-16T12:09:57.169Z,20.83
2018-04-16T12:12:24.771Z,20.75
2018-04-16T12:14:52.304Z,20.58
2018-04-16T12:17:19.805Z,20.45
2018-04-16T12:19:47.288Z,20.34
2018-04-16T12:22:14.793Z,20.34
2018-04-16T12:24:42.921Z,20.55
2018-04-16T12:27:10.449Z,20.50
2018-04-16T12:29:38.011Z,20.24
2018-04-16T12:32:05.584Z,20.52
2018-04-16T12:34:33.078Z,20.23
2018-04-16T12:37:00.691Z,20.19
2018-04-16T12:39:28.242Z,19.97
2018-04-16T12:41:55.770Z,20.07
2018-04-16T12:44:23.274Z,19.92
2018-04-16T12:46:51.650Z,19.73
2018-04-16T12:49:19.156Z,19.71
2018-04-16T12:51:50.672Z,19.75
2018-04-16T12:54:18.184Z,19.77
2018-04-16T12:56:45.710Z,19.62
2018-04-16T12:59:13.207Z,19.46
2018-04-16T13:01:40.794Z,19.61
2018-04-16T13:04:08.379Z,19.47
2018-04-16T13:06:35.913Z,19.32
2018-04-16T13:09:03.452Z,19.19
2018-04-16T13:11:31.008Z,19.24
2018-04-16T13:13:58.533Z,19.10
2018-04-16T13:16:26.058Z,19.43
2018-04-16T13:18:53.596Z,19.68
2018-04-16T13:21:21.105Z,19.71
2018-04-16T13:23:48.604Z,19.51
2018-04-16T13:26:18.383Z,19.22
2018-04-16T13:28:45.947Z,19.27
2018-04-16T13:31:13.515Z,19.21
2018-04-16T13:33:41.046Z,19.44
2018-04-16T13:36:08.563Z,19.56
2018-04-16T13:38:36.131Z,19.57
2018-04-16T13:41:03.665Z,19.77
2018-04-16T13:43:31.182Z,19.61
2018-04-16T13:45:58.862Z,19.66
2018-04-16T13:48:26.365Z,19.28
2018-04-16T13:50:54.633Z,19.08
2018-04-16T13:53:22.244Z,18.77
2018-04-16T13:55:49.801Z,18.82
2018-04-16T13:58:18.103Z,18.87
2018-04-16T14:00:45.655Z,18.94
2018-04-16T14:03:13.194Z,18.87
2018-04-16T14:05:40.707Z,18.86
2018-04-16T14:08:08.210Z,18.87
2018-04-16T14:10:35.714Z,18.77
2018-04-16T14:13:03.202Z,18.65
2018-04-16T14:15:30.706Z,18.76
2018-04-16T14:17:58.253Z,18.69
2018-04-16T14:20:25.755Z,18.43
2018-04-16T14:22:53.299Z,18.47
2018-04-16T14:25:20.787Z,18.42
2018-04-16T14:27:48.266Z,18.40
2018-04-16T14:30:15.778Z,18.14
2018-04-16T14:32:43.254Z,18.22
2018-04-16T14:35:10.738Z,18.25
2018-04-16T14:37:38.230Z,18.34
2018-04-16T14:40:05.730Z,18.33
2018-04-16T14:42:33.206Z,18.16
2018-04-16T14:45:00.747Z,18.06
2018-04-16T14:47:28.826Z,18.11
2018-04-16T14:49:56.294Z,17.97
2018-04-16T14:52:23.798Z,18.04
2018-04-16T14:54:51.308Z,18.10
2018-04-16T14:57:18.794Z,18.12
2018-04-16T14:59:46.293Z,18.08
2018-04-16T15:02:13.777Z,18.05
2018-04-16T15:04:41.282Z,18.11
2018-04-16T15:07:08.837Z,18.07
2018-04-16T15:09:36.327Z,18.11
2018-04-16T15:12:03.808Z,18.15
2018-04-16T15:14:31.313Z,18.10
2018-04-16T15:16:58.800Z,18.16
2018-04-16T15:19:26.368Z,18.17
2018-04-16T15:21:53.854Z,18.16
2018-04-16T15:24:21.323Z,18.09
2018-04-16T15:26:48.908Z,18.16
2018-04-16T15:29:16.391Z,18.20
2018-04-16T15:31:43.862Z,18.15
2018-04-16T15:34:11.357Z,18.19
2018-04-16T15:36:38.911Z,18.11
2018-04-16T15:39:06.495Z,18.04
2018-04-16T15:41:33.961Z,18.14
2018-04-16T15:44:01.450Z,18.07
2018-04-16T15:46:28.986Z,18.09
2018-04-16T15:48:56.492Z,17.97
2018-04-16T15:51:24.055Z,17.87
2018-04-16T15:53:51.591Z,17.83
2018-04-16T15:56:19.051Z,17.80
2018-04-16T15:58:46.621Z,17.65
2018-04-16T16:01:14.183Z,17.61
2018-04-16T16:03:41.654Z,17.54
2018-04-16T16:06:09.588Z,17.44
2018-04-16T16:08:37.140Z,17.36
2018-04-16T16:11:04.650Z,17.23
2018-04-16T16:16:05.861Z,17.13
2018-04-16T16:18:33.371Z,17.14
2018-04-16T16:21:00.878Z,17.06
2018-04-16T16:23:28.988Z,17.02
2018-04-16T16:25:56.502Z,17.01
2018-04-16T16:28:24.030Z,17.10
2018-04-16T16:30:51.525Z,17.14
2018-04-16T16:33:19.032Z,17.09
2018-04-16T16:35:46.573Z,17.02
2018-04-16T16:38:14.068Z,17.05
2018-04-16T16:40:41.568Z,17.12
2018-04-16T16:43:09.174Z,17.15
2018-04-16T16:45:36.666Z,17.11
2018-04-16T16:48:04.179Z,17.06
2018-04-16T16:50:31.646Z,17.07
2018-04-16T16:52:59.173Z,17.08
2018-04-16T16:55:26.651Z,17.01
2018-04-16T16:57:54.146Z,17.02
2018-04-16T17:00:21.658Z,17.02
2018-04-16T17:02:49.135Z,16.98
2018-04-16T17:05:16.679Z,16.92
2018-04-16T17:07:44.172Z,16.94
2018-04-16T17:10:11.715Z,16.92
2018-04-16T17:12:39.217Z,16.86
2018-04-16T17:15:06.729Z,16.88
2018-04-16T17:17:34.209Z,16.90
2018-04-16T17:20:01.778Z,16.79
2018-04-16T17:22:29.207Z,16.82
2018-04-16T17:24:56.680Z,16.70
2018-04-16T17:27:24.183Z,16.70
2018-04-16T17:29:51.650Z,16.60
2018-04-16T17:32:19.135Z,16.58
2018-04-16T17:34:46.589Z,16.56
2018-04-16T17:37:14.041Z,16.53
2018-04-16T17:39:41.522Z,16.52
2018-04-16T17:42:09.011Z,16.53
2018-04-16T17:44:36.502Z,16.52
2018-04-16T17:47:03.981Z,16.44
2018-04-16T17:49:31.439Z,16.44
2018-04-16T17:51:59.199Z,16.49
2018-04-16T17:54:26.701Z,16.54
2018-04-16T17:56:54.163Z,16.54
2018-04-16T17:59:21.626Z,16.58
2018-04-16T18:01:49.109Z,16.56
2018-04-16T18:04:16.576Z,16.56
2018-04-16T18:06:44.056Z,16.59
2018-04-16T18:09:11.541Z,16.61
2018-04-16T18:11:39.042Z,16.63
2018-04-16T18:14:06.542Z,16.63
2018-04-16T18:16:34.010Z,16.63
2018-04-16T18:19:01.548Z,16.64
2018-04-16T18:21:29.087Z,16.70
2018-04-16T18:23:56.562Z,16.70
2018-04-16T18:26:24.017Z,16.77
2018-04-16T18:28:51.490Z,16.74
2018-04-16T18:31:18.974Z,16.85
2018-04-16T18:33:46.438Z,16.81
2018-04-16T18:36:13.931Z,16.79
2018-04-16T18:38:41.404Z,16.83
2018-04-16T18:41:08.862Z,16.82
2018-04-16T18:43:36.347Z,16.79
2018-04-16T18:46:04.123Z,16.77
2018-04-16T18:48:31.600Z,16.77
2018-04-16T18:51:00.117Z,16.75
2018-04-16T18:53:27.604Z,16.77
2018-04-16T18:55:55.226Z,16.75
2018-04-16T18:58:22.722Z,16.75
2018-04-16T19:00:50.367Z,16.63
2018-04-16T19:03:17.831Z,16.65
2018-04-16T19:05:45.311Z,16.71
2018-04-16T19:08:12.782Z,16.59
2018-04-16T19:10:40.278Z,16.55
2018-04-16T19:13:07.778Z,16.58
2018-04-16T19:15:35.259Z,16.54
2018-04-16T19:18:02.726Z,16.46
2018-04-16T19:20:35.696Z,16.38
2018-04-16T19:23:04.736Z,16.38
2018-04-16T19:25:33.193Z,16.41
2018-04-16T19:28:06.373Z,16.35
2018-04-16T19:30:34.094Z,16.31
2018-04-16T19:33:07.222Z,16.26
2018-04-16T19:35:35.478Z,16.27
2018-04-16T19:38:02.949Z,16.22
2018-04-16T19:40:30.499Z,16.24
2018-04-16T19:42:58.041Z,16.18
2018-04-16T19:45:25.518Z,16.17
2018-04-16T19:47:54.275Z,16.22
2018-04-16T19:50:21.759Z,16.20
2018-04-16T19:52:49.290Z,16.16
2018-04-16T19:55:16.791Z,16.12
2018-04-16T19:57:49.696Z,16.17
2018-04-16T20:00:17.207Z,16.13
2018-04-16T20:02:50.344Z,16.22
2018-04-16T20:05:17.887Z,16.21
2018-04-16T20:07:46.032Z,16.13
2018-04-16T20:10:13.764Z,16.16
2018-04-16T20:12:41.535Z,16.13
2018-04-16T20:15:09.060Z,16.14
2018-04-16T20:17:36.779Z,16.14
2018-04-16T20:20:05.343Z,16.19
2018-04-16T20:22:32.908Z,16.13
2018-04-16T20:25:00.471Z,16.17
2018-04-16T20:27:28.918Z,16.10
2018-04-16T20:29:57.075Z,16.10
2018-04-16T20:32:24.572Z,16.02
2018-04-16T20:34:52.084Z,16.05
2018-04-16T20:37:19.610Z,16.00
2018-04-16T20:39:47.123Z,15.99
2018-04-16T20:42:14.602Z,15.95
2018-04-16T20:44:42.149Z,15.89
2018-04-16T20:47:09.658Z,15.91
2018-04-16T20:49:37.139Z,15.92
2018-04-16T20:52:04.829Z,15.90
2018-04-16T20:54:33.637Z,15.89
2018-04-16T20:57:01.127Z,15.97
2018-04-16T20:59:28.880Z,15.87
2018-04-16T21:01:56.337Z,15.81
2018-04-16T21:04:23.961Z,15.83
2018-04-16T21:06:51.499Z,15.80
2018-04-16T21:11:51.777Z,15.83
2018-04-16T21:14:20.570Z,15.79
2018-04-16T21:16:48.195Z,15.80
2018-04-16T21:19:16.938Z,15.81
2018-04-16T21:21:44.458Z,15.78
2018-04-16T21:24:12.007Z,15.79
2018-04-16T21:26:39.815Z,15.87
2018-04-16T21:29:07.327Z,15.81
2018-04-16T21:31:35.631Z,15.77
2018-04-16T21:34:03.132Z,15.67
2018-04-16T21:36:30.607Z,15.86
2018-04-16T21:39:00.958Z,15.81
2018-04-16T21:41:41.782Z,15.70
2018-04-16T21:46:43.286Z,15.60
2018-04-16T21:49:12.156Z,15.71
2018-04-16T21:51:40.334Z,15.80
2018-04-16T21:54:07.895Z,15.71
2018-04-16T21:59:12.588Z,15.88
2018-04-16T22:01:40.163Z,15.91
2018-04-16T22:04:08.252Z,15.93
2018-04-16T22:06:39.608Z,15.88
2018-04-16T22:11:40.110Z,15.78
2018-04-16T22:14:08.770Z,15.78
2018-04-16T22:16:36.314Z,15.88
2018-04-16T22:19:03.838Z,15.88
2018-04-16T22:21:32.711Z,15.89
2018-04-16T22:24:00.227Z,15.90
2018-04-16T22:26:27.703Z,15.87
2018-04-16T22:28:55.216Z,15.83
2018-04-16T22:31:22.695Z,15.83
2018-04-16T22:33:50.183Z,15.86
2018-04-16T22:36:17.685Z,15.90
2018-04-16T22:38:46.399Z,15.84
2018-04-16T22:41:13.848Z,15.82
2018-04-16T22:43:41.315Z,15.78
2018-04-16T22:46:08.838Z,15.73
2018-04-16T22:48:36.497Z,15.66
2018-04-16T22:51:03.993Z,15.70
2018-04-16T22:53:32.486Z,15.74
2018-04-16T22:56:00.236Z,15.66
2018-04-16T22:58:27.757Z,15.61
2018-04-16T23:00:55.267Z,15.57
2018-04-16T23:03:22.786Z,15.63
2018-04-16T23:05:50.325Z,15.54
2018-04-16T23:08:17.838Z,15.59
2018-04-16T23:10:45.361Z,15.58
2018-04-16T23:13:12.857Z,15.49
2018-04-16T23:15:40.370Z,15.51
2018-04-16T23:18:07.908Z,15.49
2018-04-16T23:20:35.486Z,15.40
2018-04-16T23:23:03.010Z,15.52
2018-04-16T23:25:30.599Z,15.53
2018-04-16T23:27:58.119Z,15.49
2018-04-16T23:30:25.627Z,15.42
2018-04-16T23:32:53.093Z,15.41
2018-04-16T23:35:20.595Z,15.45
2018-04-16T23:37:48.054Z,15.48
2018-04-16T23:40:16.892Z,15.43
2018-04-16T23:42:44.380Z,15.36
2018-04-16T23:45:11.836Z,15.38
2018-04-16T23:47:39.322Z,15.45
2018-04-16T23:50:06.837Z,15.45
2018-04-16T23:52:34.349Z,15.38
2018-04-16T23:55:01.828Z,15.41
2018-04-16T23:57:29.483Z,15.42
2018-04-16T23:59:57.666Z,15.38
